Time;durP1;ratioP1;P1;durP2;ratioP2;P2;SDS_P1;SDS_P2;PMS_P1;PMS_P2;Temp;Humidity;BMP_temperature;BMP_pressure;BME280_temperature;BME280_humidity;BME280_pressure;Samples;Min_cycle;Max_cycle;Signal;HPM_P1;HPM_P2
2021/01/02 00:01:48;;;;;;;;;;;2.60;82.50;;;;;;5103728;28;19939;-76
2021/01/02 00:04:33;;;;;;;;;;;2.60;82.30;;;;;;5100842;28;19928;-74
2021/01/02 00:07:28;;;;;;;;;;;2.70;82.20;;;;;;5100384;28;20334;-73
2021/01/02 00:09:55;;;;;;;;;;;2.70;82.10;;;;;;5101711;28;19939;-76
2021/01/02 00:12:28;;;;;;;;;;;2.80;82.10;;;;;;5100288;28;19924;-75
2021/01/02 00:15:05;;;;;;;;;;;2.80;81.90;;;;;;5100333;28;19932;-75
2021/01/02 00:17:34;;;;;;;;;;;2.80;81.90;;;;;;5100075;28;19932;-74
2021/01/02 00:20:03;;;;;;;;;;;2.80;81.20;;;;;;5099768;28;19928;-77
2021/01/02 00:22:29;;;;;;;;;;;2.80;81.50;;;;;;5099016;28;19928;-66
2021/01/02 00:24:56;;;;;;;;;;;2.90;81.00;;;;;;5101081;28;19924;-74
2021/01/02 00:27:34;;;;;;;;;;;2.90;80.60;;;;;;5114257;28;20367;-75
2021/01/02 00:30:03;;;;;;;;;;;2.90;81.00;;;;;;5103796;28;19968;-73
2021/01/02 00:32:42;;;;;;;;;;;2.90;80.70;;;;;;5119760;28;20402;-73
2021/01/02 00:35:19;;;;;;;;;;;3.00;80.60;;;;;;5102504;28;19931;-75
2021/01/02 00:37:47;;;;;;;;;;;3.10;80.60;;;;;;5111882;28;19924;-75
2021/01/02 00:40:15;;;;;;;;;;;3.00;80.00;;;;;;5123497;28;20351;-75
2021/01/02 00:42:44;;;;;;;;;;;2.90;81.90;;;;;;5105744;28;19924;-75
2021/01/02 00:45:12;;;;;;;;;;;2.70;82.00;;;;;;5106905;28;19928;-75
2021/01/02 00:47:39;;;;;;;;;;;2.70;82.70;;;;;;5105714;28;20402;-75
2021/01/02 00:50:06;;;;;;;;;;;2.70;81.90;;;;;;5088336;28;19924;-75
2021/01/02 00:52:45;;;;;;;;;;;2.70;81.50;;;;;;5104888;28;19931;-74
2021/01/02 00:55:30;;;;;;;;;;;2.80;82.00;;;;;;5102920;28;19931;-77
2021/01/02 00:58:10;;;;;;;;;;;2.70;82.30;;;;;;5103728;28;19928;-72
2021/01/02 01:00:37;;;;;;;;;;;2.70;81.40;;;;;;5103665;28;19924;-79
2021/01/02 01:03:07;;;;;;;;;;;2.70;81.30;;;;;;5084281;28;19931;-78
2021/01/02 01:05:37;;;;;;;;;;;2.80;81.40;;;;;;5100301;28;19947;-77
2021/01/02 01:08:04;;;;;;;;;;;2.70;80.90;;;;;;5097917;28;19931;-77
2021/01/02 01:10:35;;;;;;;;;;;2.70;81.20;;;;;;5098510;28;19924;-76
2021/01/02 01:13:04;;;;;;;;;;;2.60;81.90;;;;;;5097060;28;19924;-77
2021/01/02 01:15:30;;;;;;;;;;;2.40;81.90;;;;;;5098489;28;19931;-78
2021/01/02 01:18:02;;;;;;;;;;;2.40;82.70;;;;;;5117574;28;20399;-77
2021/01/02 01:20:29;;;;;;;;;;;2.40;83.30;;;;;;5118395;28;19923;-76
2021/01/02 01:23:17;;;;;;;;;;;2.40;83.70;;;;;;5117859;28;19927;-71
2021/01/02 01:25:43;;;;;;;;;;;2.40;83.30;;;;;;5118522;28;19977;-74
2021/01/02 01:28:10;;;;;;;;;;;2.20;82.90;;;;;;5097579;28;19924;-71
2021/01/02 01:30:39;;;;;;;;;;;2.10;83.70;;;;;;5095661;28;20445;-66
2021/01/02 01:33:08;;;;;;;;;;;2.10;84.00;;;;;;5100025;28;19924;-71
2021/01/02 01:35:41;;;;;;;;;;;2.20;84.00;;;;;;5079044;28;20014;-71
2021/01/02 01:38:10;;;;;;;;;;;2.20;84.10;;;;;;5097516;28;19931;-74
2021/01/02 01:40:38;;;;;;;;;;;2.30;83.50;;;;;;5098214;28;19928;-70
2021/01/02 01:43:05;;;;;;;;;;;2.20;83.50;;;;;;5098510;28;19924;-75
2021/01/02 01:45:38;;;;;;;;;;;2.20;84.00;;;;;;5096516;28;19928;-75
2021/01/02 01:48:11;;;;;;;;;;;2.30;83.70;;;;;;5097120;28;20327;-74
2021/01/02 01:50:59;;;;;;;;;;;2.30;83.60;;;;;;5097803;28;19924;-75
2021/01/02 01:53:41;;;;;;;;;;;2.30;83.80;;;;;;5118855;28;19971;-74
2021/01/02 01:56:29;;;;;;;;;;;2.20;83.30;;;;;;5118928;28;20294;-76
2021/01/02 01:59:14;;;;;;;;;;;2.20;83.20;;;;;;5117636;28;20098;-74
2021/01/02 02:01:44;;;;;;;;;;;2.20;83.60;;;;;;5116888;28;20052;-75
2021/01/02 02:04:30;;;;;;;;;;;2.10;84.20;;;;;;5116194;28;20387;-75
2021/01/02 02:07:00;;;;;;;;;;;2.20;84.40;;;;;;5116617;28;19923;-75
2021/01/02 02:09:40;;;;;;;;;;;2.10;83.60;;;;;;5116776;28;20362;-69
2021/01/02 02:12:14;;;;;;;;;;;2.00;85.20;;;;;;5097339;28;19923;-74
2021/01/02 02:14:49;;;;;;;;;;;2.00;85.00;;;;;;5115614;28;19924;-71
2021/01/02 02:17:23;;;;;;;;;;;1.90;86.00;;;;;;5100002;28;19931;-75
2021/01/02 02:19:55;;;;;;;;;;;1.90;85.70;;;;;;5076112;28;19931;-75
2021/01/02 02:22:25;;;;;;;;;;;2.10;86.40;;;;;;5094552;28;19926;-68
2021/01/02 02:24:52;;;;;;;;;;;2.30;83.70;;;;;;5094546;28;19924;-75
2021/01/02 02:27:26;;;;;;;;;;;2.30;83.50;;;;;;5108348;28;19927;-74
2021/01/02 02:30:11;;;;;;;;;;;2.30;83.70;;;;;;5114496;28;19958;-75
2021/01/02 02:32:41;;;;;;;;;;;2.40;83.10;;;;;;5111258;28;19943;-75
2021/01/02 02:35:17;;;;;;;;;;;2.40;82.40;;;;;;5094958;28;19924;-75
2021/01/02 02:37:53;;;;;;;;;;;2.30;83.40;;;;;;5102663;28;20379;-77
2021/01/02 02:40:20;;;;;;;;;;;2.30;83.70;;;;;;5115356;28;19923;-77
2021/01/02 02:42:47;;;;;;;;;;;2.20;84.20;;;;;;5098447;28;19924;-74
2021/01/02 02:45:15;;;;;;;;;;;2.30;84.30;;;;;;5095204;28;19931;-75
2021/01/02 02:47:41;;;;;;;;;;;2.10;84.40;;;;;;5077169;28;19930;-75
2021/01/02 02:50:13;;;;;;;;;;;2.10;84.00;;;;;;5094854;28;19935;-75
2021/01/02 02:52:40;;;;;;;;;;;2.20;83.70;;;;;;5094381;28;19924;-75
2021/01/02 02:55:07;;;;;;;;;;;2.20;83.30;;;;;;5094470;28;19924;-76
2021/01/02 02:57:33;;;;;;;;;;;2.20;83.30;;;;;;5095343;28;20602;-74
2021/01/02 03:00:01;;;;;;;;;;;2.10;83.40;;;;;;5096912;28;19939;-75
2021/01/02 03:02:29;;;;;;;;;;;2.10;83.50;;;;;;5098495;28;19928;-76
2021/01/02 03:04:56;;;;;;;;;;;2.10;82.90;;;;;;5084435;28;19931;-76
2021/01/02 03:07:23;;;;;;;;;;;2.10;82.70;;;;;;5104211;28;19983;-75
2021/01/02 03:09:50;;;;;;;;;;;2.00;83.40;;;;;;5103783;28;19924;-75
2021/01/02 03:12:17;;;;;;;;;;;1.90;83.30;;;;;;5104312;28;20412;-78
2021/01/02 03:14:43;;;;;;;;;;;2.00;84.60;;;;;;5102821;28;19935;-72
2021/01/02 03:17:09;;;;;;;;;;;1.80;84.70;;;;;;5117931;28;19924;-77
2021/01/02 03:19:35;;;;;;;;;;;1.80;84.80;;;;;;5121701;28;19924;-77
2021/01/02 03:22:02;;;;;;;;;;;1.80;85.10;;;;;;5120593;28;19945;-76
2021/01/02 03:24:28;;;;;;;;;;;1.80;84.60;;;;;;5119941;28;20021;-72
2021/01/02 03:26:55;;;;;;;;;;;1.80;85.00;;;;;;5108434;28;19924;-72
2021/01/02 03:29:23;;;;;;;;;;;1.90;84.90;;;;;;5097346;28;19924;-66
2021/01/02 03:31:50;;;;;;;;;;;1.80;85.10;;;;;;5099322;28;19923;-75
2021/01/02 03:34:17;;;;;;;;;;;1.90;84.60;;;;;;5100902;28;20012;-73
2021/01/02 03:36:43;;;;;;;;;;;2.00;84.50;;;;;;5097017;28;19931;-75
2021/01/02 03:39:10;;;;;;;;;;;1.90;84.40;;;;;;5097087;28;20277;-75
2021/01/02 03:41:36;;;;;;;;;;;1.90;84.80;;;;;;5097957;28;19924;-75
2021/01/02 03:44:02;;;;;;;;;;;1.90;85.50;;;;;;5098219;28;20368;-75
2021/01/02 03:46:31;;;;;;;;;;;1.80;85.40;;;;;;5097937;28;19924;-75
2021/01/02 03:48:57;;;;;;;;;;;1.90;85.10;;;;;;5097390;28;19928;-75
2021/01/02 03:51:25;;;;;;;;;;;1.90;85.60;;;;;;5097685;28;19924;-67
2021/01/02 03:53:52;;;;;;;;;;;1.80;85.50;;;;;;5097358;28;20372;-75
2021/01/02 03:56:18;;;;;;;;;;;1.70;85.80;;;;;;5095917;28;19935;-76
2021/01/02 03:58:45;;;;;;;;;;;1.70;85.80;;;;;;5096939;28;19943;-75
2021/01/02 04:01:12;;;;;;;;;;;1.70;86.20;;;;;;5097532;28;19924;-77
2021/01/02 04:03:39;;;;;;;;;;;1.80;85.60;;;;;;5098791;28;19924;-75
2021/01/02 04:06:06;;;;;;;;;;;0.60;84.80;;;;;;5080344;28;20396;-75
2021/01/02 04:08:32;;;;;;;;;;;1.90;85.10;;;;;;5098945;28;19931;-75
2021/01/02 04:10:59;;;;;;;;;;;1.80;85.50;;;;;;5097450;28;19931;-74
2021/01/02 04:13:26;;;;;;;;;;;2.20;85.50;;;;;;5097293;28;19924;-67
2021/01/02 04:15:53;;;;;;;;;;;1.80;85.80;;;;;;5101777;28;19931;-78
2021/01/02 04:18:19;;;;;;;;;;;1.80;85.70;;;;;;5119592;28;19931;-78
2021/01/02 04:20:48;;;;;;;;;;;1.90;84.80;;;;;;5117418;28;20372;-68
2021/01/02 04:23:14;;;;;;;;;;;1.90;84.80;;;;;;5119668;28;19923;-75
2021/01/02 04:25:41;;;;;;;;;;;1.90;84.70;;;;;;5122099;28;20396;-78
2021/01/02 04:28:08;;;;;;;;;;;1.80;84.80;;;;;;5100949;28;19924;-72
2021/01/02 04:30:34;;;;;;;;;;;1.80;85.10;;;;;;5098919;28;19947;-71
2021/01/02 04:33:02;;;;;;;;;;;1.70;85.20;;;;;;5101952;28;19924;-68
2021/01/02 04:35:29;;;;;;;;;;;1.60;85.30;;;;;;5094448;28;20010;-64
2021/01/02 04:37:55;;;;;;;;;;;1.60;85.90;;;;;;5084001;28;19938;-75
2021/01/02 04:40:21;;;;;;;;;;;1.70;85.40;;;;;;5114031;28;19939;-73
2021/01/02 04:42:49;;;;;;;;;;;1.70;85.20;;;;;;5095642;28;19931;-66
2021/01/02 04:45:16;;;;;;;;;;;1.60;85.80;;;;;;5092810;28;19924;-75
2021/01/02 04:47:44;;;;;;;;;;;1.50;86.20;;;;;;5092541;28;19924;-67
2021/01/02 04:50:11;;;;;;;;;;;1.60;86.00;;;;;;5093490;28;19935;-74
2021/01/02 04:52:37;;;;;;;;;;;1.60;86.00;;;;;;5093932;28;20323;-76
2021/01/02 04:55:04;;;;;;;;;;;1.60;85.60;;;;;;5076066;28;20068;-75
2021/01/02 04:57:33;;;;;;;;;;;1.50;86.10;;;;;;5094026;28;19926;-75
2021/01/02 05:00:00;;;;;;;;;;;1.40;86.40;;;;;;5095012;28;20339;-78
2021/01/02 05:02:28;;;;;;;;;;;1.70;86.50;;;;;;5094043;28;19970;-68
2021/01/02 05:04:54;;;;;;;;;;;1.60;86.00;;;;;;5092769;28;19973;-75
2021/01/02 05:07:22;;;;;;;;;;;1.70;85.40;;;;;;5075685;28;19924;-68
2021/01/02 05:09:48;;;;;;;;;;;1.60;85.60;;;;;;5093398;28;19931;-78
2021/01/02 05:12:27;;;;;;;;;;;1.50;85.90;;;;;;5094729;28;20369;-77
2021/01/02 05:14:57;;;;;;;;;;;1.50;86.70;;;;;;5094641;28;19924;-75
2021/01/02 05:17:25;;;;;;;;;;;1.50;86.40;;;;;;5110935;28;20387;-78
2021/01/02 05:19:59;;;;;;;;;;;1.50;86.70;;;;;;5114482;28;19923;-77
2021/01/02 05:22:26;;;;;;;;;;;1.40;86.60;;;;;;5115206;28;19924;-75
2021/01/02 05:25:09;;;;;;;;;;;1.40;86.90;;;;;;5115058;28;19927;-76
2021/01/02 05:27:36;;;;;;;;;;;1.40;86.90;;;;;;5100049;28;20319;-77
2021/01/02 05:30:14;;;;;;;;;;;1.40;86.70;;;;;;5080060;28;19924;-77
2021/01/02 05:32:54;;;;;;;;;;;1.40;86.50;;;;;;5098203;28;19932;-76
2021/01/02 05:35:21;;;;;;;;;;;1.30;87.20;;;;;;5098272;28;19924;-78
2021/01/02 05:37:48;;;;;;;;;;;1.50;87.00;;;;;;5107436;28;20403;-73
2021/01/02 05:40:34;;;;;;;;;;;1.40;86.80;;;;;;5124728;28;19946;-75
2021/01/02 05:43:01;;;;;;;;;;;1.30;86.80;;;;;;5107936;28;19924;-78
2021/01/02 05:45:28;;;;;;;;;;;1.40;86.00;;;;;;5106000;28;19926;-78
2021/01/02 05:48:15;;;;;;;;;;;1.30;86.90;;;;;;5106803;28;19924;-76
2021/01/02 05:50:48;;;;;;;;;;;1.40;86.60;;;;;;5106804;28;19924;-76
2021/01/02 05:53:18;;;;;;;;;;;1.20;87.20;;;;;;5104665;28;19924;-69
2021/01/02 05:55:45;;;;;;;;;;;1.20;87.20;;;;;;5104011;28;19928;-76
2021/01/02 05:58:15;;;;;;;;;;;1.40;87.10;;;;;;5085098;28;19924;-69
2021/01/02 06:00:43;;;;;;;;;;;1.20;86.50;;;;;;5085647;28;19935;-75
2021/01/02 06:03:20;;;;;;;;;;;1.20;86.30;;;;;;5086852;28;19924;-76
2021/01/02 06:06:03;;;;;;;;;;;1.20;86.10;;;;;;5103176;28;19924;-78
2021/01/02 06:08:34;;;;;;;;;;;1.20;86.30;;;;;;5102814;28;19936;-78
2021/01/02 06:11:03;;;;;;;;;;;1.10;86.40;;;;;;5082974;28;20086;-78
2021/01/02 06:13:31;;;;;;;;;;;1.10;87.00;;;;;;5083231;28;19934;-76
2021/01/02 06:16:01;;;;;;;;;;;1.30;85.90;;;;;;5102755;28;19935;-76
2021/01/02 06:18:28;;;;;;;;;;;1.30;85.70;;;;;;5102186;28;19935;-74
2021/01/02 06:20:57;;;;;;;;;;;1.30;85.80;;;;;;5101639;28;19924;-77
2021/01/02 06:23:25;;;;;;;;;;;1.20;85.90;;;;;;5103031;28;19923;-77
2021/01/02 06:25:52;;;;;;;;;;;1.30;85.70;;;;;;5085150;28;19947;-76
2021/01/02 06:28:18;;;;;;;;;;;1.20;85.10;;;;;;5125308;28;19924;-77
2021/01/02 06:30:45;;;;;;;;;;;1.20;84.90;;;;;;5125220;28;20216;-77
2021/01/02 06:33:15;;;;;;;;;;;1.20;85.60;;;;;;5115144;28;19931;-77
2021/01/02 06:35:42;;;;;;;;;;;1.30;84.60;;;;;;5098085;28;19931;-77
2021/01/02 06:38:12;;;;;;;;;;;1.20;85.30;;;;;;5109457;28;20006;-72
2021/01/02 06:40:42;;;;;;;;;;;1.20;85.50;;;;;;5119667;28;19947;-77
2021/01/02 06:43:15;;;;;;;;;;;1.20;86.10;;;;;;5099300;28;19970;-76
2021/01/02 06:45:41;;;;;;;;;;;1.10;86.10;;;;;;5098371;28;19924;-75
2021/01/02 06:48:17;;;;;;;;;;;1.20;85.70;;;;;;5097986;28;19971;-76
2021/01/02 06:50:44;;;;;;;;;;;1.10;86.40;;;;;;5101886;28;19971;-77
2021/01/02 06:53:37;;;;;;;;;;;1.20;85.70;;;;;;5107948;28;19924;-77
2021/01/02 06:56:03;;;;;;;;;;;1.20;85.50;;;;;;5096035;28;20277;-77
2021/01/02 06:58:34;;;;;;;;;;;1.10;85.90;;;;;;5083440;28;19928;-77
2021/01/02 07:01:05;;;;;;;;;;;1.20;85.90;;;;;;5101724;28;19924;-77
2021/01/02 07:03:41;;;;;;;;;;;1.20;86.20;;;;;;5081832;28;19924;-76
2021/01/02 07:06:26;;;;;;;;;;;1.20;86.70;;;;;;5082359;28;19924;-71
2021/01/02 07:08:54;;;;;;;;;;;1.20;86.80;;;;;;5099643;28;19925;-67
2021/01/02 07:11:28;;;;;;;;;;;1.40;85.90;;;;;;5100529;28;20018;-77
2021/01/02 07:14:10;;;;;;;;;;;1.40;85.80;;;;;;5100793;28;19930;-77
2021/01/02 07:16:36;;;;;;;;;;;1.50;84.50;;;;;;5110286;28;19927;-73
2021/01/02 07:19:06;;;;;;;;;;;1.50;84.30;;;;;;5120060;28;19930;-74
2021/01/02 07:21:35;;;;;;;;;;;1.60;84.90;;;;;;5102342;28;19947;-77
2021/01/02 07:24:20;;;;;;;;;;;1.60;84.10;;;;;;5119842;28;20323;-66
2021/01/02 07:26:48;;;;;;;;;;;1.50;83.40;;;;;;5111160;28;20015;-77
2021/01/02 07:29:17;;;;;;;;;;;1.50;83.50;;;;;;5099367;28;19924;-77
2021/01/02 07:31:44;;;;;;;;;;;1.50;83.40;;;;;;5099086;28;20292;-66
2021/01/02 07:34:23;;;;;;;;;;;1.40;83.90;;;;;;5102890;28;19924;-76
2021/01/02 07:36:50;;;;;;;;;;;1.50;83.40;;;;;;5097998;28;19924;-77
2021/01/02 07:39:17;;;;;;;;;;;1.50;83.00;;;;;;5075742;28;19924;-76
2021/01/02 07:41:44;;;;;;;;;;;1.40;83.40;;;;;;5098909;28;19924;-77
2021/01/02 07:44:11;;;;;;;;;;;1.40;83.40;;;;;;5099396;28;19924;-77
2021/01/02 07:46:42;;;;;;;;;;;1.40;83.20;;;;;;5080252;28;19943;-73
2021/01/02 07:49:09;;;;;;;;;;;1.30;82.90;;;;;;5098784;28;19932;-76
2021/01/02 07:51:36;;;;;;;;;;;1.20;83.90;;;;;;5108188;28;19924;-75
2021/01/02 07:54:03;;;;;;;;;;;1.00;84.60;;;;;;5098918;28;19924;-76
2021/01/02 07:56:33;;;;;;;;;;;1.00;84.70;;;;;;5099367;28;19955;-77
2021/01/02 07:59:21;;;;;;;;;;;1.00;84.50;;;;;;5098179;28;19924;-77
2021/01/02 08:01:55;;;;;;;;;;;1.20;83.60;;;;;;5098467;28;20086;-76
2021/01/02 08:04:22;;;;;;;;;;;1.10;84.50;;;;;;5098650;28;19931;-77
2021/01/02 08:06:53;;;;;;;;;;;1.10;84.40;;;;;;5097937;28;20534;-75
2021/01/02 08:09:20;;;;;;;;;;;1.30;84.80;;;;;;5103853;28;19924;-75
2021/01/02 08:11:53;;;;;;;;;;;1.50;85.00;;;;;;5114714;28;19924;-73
2021/01/02 08:14:20;;;;;;;;;;;1.60;85.50;;;;;;5112719;28;19924;-69
2021/01/02 08:17:00;;;;;;;;;;;1.90;84.00;;;;;;5099255;28;19924;-71
2021/01/02 08:19:27;;;;;;;;;;;2.00;83.20;;;;;;5090485;28;19939;-70
2021/01/02 08:21:54;;;;;;;;;;;2.30;81.20;;;;;;5091671;28;20171;-69
2021/01/02 08:24:20;;;;;;;;;;;2.50;81.60;;;;;;5091856;28;20308;-71
2021/01/02 08:26:48;;;;;;;;;;;2.60;80.00;;;;;;5100545;28;19934;-69
2021/01/02 08:29:15;;;;;;;;;;;2.80;79.30;;;;;;5112606;28;19932;-69
2021/01/02 08:31:48;;;;;;;;;;;2.80;79.30;;;;;;5110458;28;20301;-68
2021/01/02 08:34:31;;;;;;;;;;;2.80;77.60;;;;;;5107586;28;19939;-66
2021/01/02 08:36:58;;;;;;;;;;;2.70;78.10;;;;;;5108884;28;19924;-67
2021/01/02 08:39:25;;;;;;;;;;;2.80;77.60;;;;;;5090185;28;20305;-66
2021/01/02 08:41:52;;;;;;;;;;;3.10;77.20;;;;;;5089714;28;19924;-65
2021/01/02 08:44:21;;;;;;;;;;;3.30;75.90;;;;;;5090502;28;19935;-66
2021/01/02 08:46:47;;;;;;;;;;;3.50;76.20;;;;;;5090131;28;19935;-66
2021/01/02 08:49:25;;;;;;;;;;;3.30;74.00;;;;;;5085967;28;20290;-66
2021/01/02 08:51:51;;;;;;;;;;;3.40;74.60;;;;;;5080107;28;19924;-66
2021/01/02 08:54:17;;;;;;;;;;;3.40;74.10;;;;;;5090158;28;19947;-65
2021/01/02 08:56:44;;;;;;;;;;;3.40;74.90;;;;;;5090560;28;19931;-66
2021/01/02 08:59:13;;;;;;;;;;;3.40;74.10;;;;;;5096305;28;19924;-70
2021/01/02 09:01:40;;;;;;;;;;;3.40;74.20;;;;;;5093203;28;19932;-71
2021/01/02 09:04:11;;;;;;;;;;;3.50;74.60;;;;;;5062156;28;19928;-66
2021/01/02 09:06:38;;;;;;;;;;;3.50;72.80;;;;;;5074474;28;19925;-65
2021/01/02 09:09:07;;;;;;;;;;;3.40;75.00;;;;;;5073783;28;20403;-65
2021/01/02 09:11:46;;;;;;;;;;;3.30;74.80;;;;;;5088870;28;19925;-65
2021/01/02 09:14:12;;;;;;;;;;;3.30;74.80;;;;;;5093678;28;19924;-66
2021/01/02 09:16:38;;;;;;;;;;;3.30;75.30;;;;;;5093701;28;19924;-65
2021/01/02 09:19:05;;;;;;;;;;;3.40;74.50;;;;;;5086693;28;19928;-64
2021/01/02 09:21:31;;;;;;;;;;;3.20;73.90;;;;;;5055472;28;20401;-65
2021/01/02 09:23:59;;;;;;;;;;;2.90;75.00;;;;;;5073256;28;19964;-65
2021/01/02 09:26:35;;;;;;;;;;;3.00;76.60;;;;;;5073149;28;19924;-64
2021/01/02 09:29:15;;;;;;;;;;;3.30;74.00;;;;;;5073083;28;19931;-65
2021/01/02 09:31:41;;;;;;;;;;;3.10;76.50;;;;;;5073266;28;19925;-65
2021/01/02 09:34:07;;;;;;;;;;;2.80;76.40;;;;;;5073209;28;20401;-65
2021/01/02 09:36:34;;;;;;;;;;;2.70;77.50;;;;;;5084437;28;19958;-65
2021/01/02 09:39:02;;;;;;;;;;;3.20;77.60;;;;;;5075371;28;20006;-66
2021/01/02 09:41:28;;;;;;;;;;;3.40;76.50;;;;;;5074230;28;19931;-68
2021/01/02 09:43:56;;;;;;;;;;;3.50;74.40;;;;;;5055534;28;19979;-66
2021/01/02 09:46:23;;;;;;;;;;;3.30;75.20;;;;;;5072926;28;19932;-66
2021/01/02 09:48:52;;;;;;;;;;;3.40;75.50;;;;;;5072795;28;19924;-66
2021/01/02 09:51:19;;;;;;;;;;;3.60;76.10;;;;;;5093130;28;19924;-67
2021/01/02 09:53:46;;;;;;;;;;;3.60;74.90;;;;;;5092519;28;19924;-67
2021/01/02 09:56:13;;;;;;;;;;;3.60;74.20;;;;;;5096865;28;19955;-68
2021/01/02 09:58:41;;;;;;;;;;;3.50;74.80;;;;;;5107514;28;19949;-68
2021/01/02 10:01:07;;;;;;;;;;;3.50;75.30;;;;;;5112268;28;20194;-67
2021/01/02 10:03:33;;;;;;;;;;;3.50;75.20;;;;;;5111191;28;20391;-69
2021/01/02 10:06:00;;;;;;;;;;;3.40;76.50;;;;;;5093296;28;19924;-66
2021/01/02 10:08:26;;;;;;;;;;;3.40;76.50;;;;;;5092799;28;19985;-68
2021/01/02 10:10:53;;;;;;;;;;;3.70;75.60;;;;;;5092924;28;19932;-68
2021/01/02 10:13:19;;;;;;;;;;;3.80;75.10;;;;;;5092675;28;20331;-67
2021/01/02 10:15:46;;;;;;;;;;;4.00;74.00;;;;;;5091679;28;19936;-68
2021/01/02 10:18:13;;;;;;;;;;;3.90;74.80;;;;;;5092468;28;20281;-68
2021/01/02 10:20:40;;;;;;;;;;;4.00;74.50;;;;;;5097398;28;19924;-68
2021/01/02 10:23:06;;;;;;;;;;;4.00;74.30;;;;;;5113052;28;19930;-68
2021/01/02 10:25:33;;;;;;;;;;;4.20;72.80;;;;;;5113160;28;19924;-68
2021/01/02 10:27:59;;;;;;;;;;;4.10;73.50;;;;;;5113543;28;19924;-67
2021/01/02 10:30:26;;;;;;;;;;;4.10;74.70;;;;;;5113727;28;19931;-70
2021/01/02 10:32:52;;;;;;;;;;;4.10;74.60;;;;;;5107398;28;19928;-66
2021/01/02 10:35:19;;;;;;;;;;;4.10;75.50;;;;;;5092674;28;19925;-66
2021/01/02 10:37:47;;;;;;;;;;;3.90;75.40;;;;;;5100891;28;19931;-71
2021/01/02 10:40:14;;;;;;;;;;;4.00;75.50;;;;;;5112102;28;19924;-70
2021/01/02 10:42:40;;;;;;;;;;;4.00;75.40;;;;;;5111530;28;20345;-69
2021/01/02 10:45:09;;;;;;;;;;;4.20;73.90;;;;;;5100951;28;19932;-73
2021/01/02 10:47:35;;;;;;;;;;;4.40;73.80;;;;;;5110620;28;19946;-67
2021/01/02 10:50:02;;;;;;;;;;;4.40;74.20;;;;;;5092510;28;19936;-70
2021/01/02 10:52:30;;;;;;;;;;;4.40;73.30;;;;;;5103008;28;19939;-65
2021/01/02 10:54:56;;;;;;;;;;;4.50;74.20;;;;;;5093264;28;19928;-69
2021/01/02 10:57:27;;;;;;;;;;;4.60;74.00;;;;;;5092974;28;20316;-68
2021/01/02 10:59:55;;;;;;;;;;;4.70;71.80;;;;;;5098583;28;20014;-72
2021/01/02 11:02:22;;;;;;;;;;;4.90;70.90;;;;;;5094629;28;20502;-71
2021/01/02 11:04:49;;;;;;;;;;;5.00;71.10;;;;;;5091987;28;19932;-70
2021/01/02 11:07:15;;;;;;;;;;;5.20;70.90;;;;;;5092138;28;19931;-70
2021/01/02 11:09:45;;;;;;;;;;;5.00;71.20;;;;;;5092139;28;19928;-68
2021/01/02 11:12:11;;;;;;;;;;;4.90;72.20;;;;;;5091640;28;19931;-67
2021/01/02 11:14:46;;;;;;;;;;;4.70;73.30;;;;;;5096953;28;19924;-66
2021/01/02 11:17:12;;;;;;;;;;;4.70;73.60;;;;;;5106361;28;19931;-64
2021/01/02 11:19:38;;;;;;;;;;;4.90;72.80;;;;;;5091940;28;19928;-66
2021/01/02 11:22:04;;;;;;;;;;;5.20;70.90;;;;;;5091564;28;19932;-66
2021/01/02 11:24:33;;;;;;;;;;;5.10;71.40;;;;;;5091153;28;20388;-65
2021/01/02 11:27:00;;;;;;;;;;;4.80;72.00;;;;;;5091099;28;19943;-68
2021/01/02 11:29:28;;;;;;;;;;;5.00;72.90;;;;;;5091511;28;19924;-69
2021/01/02 11:31:55;;;;;;;;;;;5.20;71.90;;;;;;5091247;28;19931;-66
2021/01/02 11:34:22;;;;;;;;;;;5.20;71.70;;;;;;5090806;28;19969;-65
2021/01/02 11:36:53;;;;;;;;;;;4.90;72.00;;;;;;5089654;28;20224;-66
2021/01/02 11:39:20;;;;;;;;;;;4.80;71.60;;;;;;5089100;28;19928;-67
2021/01/02 11:41:46;;;;;;;;;;;4.60;74.00;;;;;;5090578;28;19931;-67
2021/01/02 11:44:15;;;;;;;;;;;4.50;75.20;;;;;;5090369;28;19948;-71
2021/01/02 11:46:43;;;;;;;;;;;4.60;74.60;;;;;;5090776;28;20396;-72
2021/01/02 11:49:10;;;;;;;;;;;4.70;74.40;;;;;;5093351;28;19932;-70
2021/01/02 11:51:37;;;;;;;;;;;4.80;75.80;;;;;;5091947;28;19924;-71
2021/01/02 11:54:04;;;;;;;;;;;4.90;73.80;;;;;;5090687;28;20247;-71
2021/01/02 11:56:31;;;;;;;;;;;5.00;73.30;;;;;;5090582;28;19930;-70
2021/01/02 11:59:00;;;;;;;;;;;5.20;72.60;;;;;;5090288;28;20015;-72
2021/01/02 12:01:35;;;;;;;;;;;5.20;72.50;;;;;;5090694;28;19928;-71
2021/01/02 12:04:01;;;;;;;;;;;5.40;72.20;;;;;;5089247;28;19924;-72
2021/01/02 12:06:29;;;;;;;;;;;5.80;70.50;;;;;;5088986;28;19928;-70
2021/01/02 12:08:55;;;;;;;;;;;5.80;70.30;;;;;;5090903;28;19924;-72
2021/01/02 12:11:30;;;;;;;;;;;5.70;70.20;;;;;;5098411;28;20450;-72
2021/01/02 12:13:58;;;;;;;;;;;5.90;69.70;;;;;;5090692;28;19936;-73
2021/01/02 12:16:35;;;;;;;;;;;6.10;68.90;;;;;;5093443;28;19924;-73
2021/01/02 12:19:02;;;;;;;;;;;5.90;69.20;;;;;;5090431;28;19924;-72
2021/01/02 12:21:28;;;;;;;;;;;5.60;70.00;;;;;;5106522;28;19935;-74
2021/01/02 12:23:55;;;;;;;;;;;5.50;72.00;;;;;;5108255;28;19923;-73
2021/01/02 12:26:22;;;;;;;;;;;5.40;72.60;;;;;;5099848;28;20384;-73
2021/01/02 12:28:49;;;;;;;;;;;5.10;72.10;;;;;;5111887;28;19924;-74
2021/01/02 12:31:20;;;;;;;;;;;5.30;73.10;;;;;;5095005;28;19931;-75
2021/01/02 12:33:47;;;;;;;;;;;5.30;73.00;;;;;;5091676;28;20007;-73
2021/01/02 12:36:15;;;;;;;;;;;5.40;72.00;;;;;;5090315;28;20384;-71
2021/01/02 12:38:42;;;;;;;;;;;5.50;71.50;;;;;;5107704;28;20414;-65
2021/01/02 12:41:15;;;;;;;;;;;5.30;73.00;;;;;;5115088;28;19969;-72
2021/01/02 12:43:41;;;;;;;;;;;5.40;73.10;;;;;;5114265;28;19930;-73
2021/01/02 12:46:08;;;;;;;;;;;5.50;73.30;;;;;;5094352;28;19928;-70
2021/01/02 12:48:34;;;;;;;;;;;5.70;71.70;;;;;;5094482;28;20236;-73
2021/01/02 12:51:02;;;;;;;;;;;5.70;71.10;;;;;;5093967;28;19924;-72
2021/01/02 12:53:29;;;;;;;;;;;5.40;72.10;;;;;;5094009;28;19931;-75
2021/01/02 12:55:55;;;;;;;;;;;5.50;72.60;;;;;;5093928;28;20441;-74
2021/01/02 12:58:21;;;;;;;;;;;5.50;72.30;;;;;;5094480;28;19925;-70
2021/01/02 13:00:48;;;;;;;;;;;5.40;72.10;;;;;;5093896;28;19928;-70
2021/01/02 13:03:14;;;;;;;;;;;5.50;73.30;;;;;;5094139;28;19931;-69
2021/01/02 13:05:40;;;;;;;;;;;5.60;73.20;;;;;;5097363;28;19924;-69
2021/01/02 13:08:07;;;;;;;;;;;5.80;71.80;;;;;;5094306;28;19988;-72
2021/01/02 13:10:34;;;;;;;;;;;5.70;72.50;;;;;;5098538;28;20395;-71
2021/01/02 13:13:01;;;;;;;;;;;5.60;72.00;;;;;;5109219;28;19924;-68
2021/01/02 13:15:28;;;;;;;;;;;5.60;72.50;;;;;;5097128;28;20018;-68
2021/01/02 13:17:54;;;;;;;;;;;5.60;72.80;;;;;;5111334;28;19924;-69
2021/01/02 13:20:21;;;;;;;;;;;5.70;71.80;;;;;;5094166;28;20288;-72
2021/01/02 13:22:47;;;;;;;;;;;5.80;71.10;;;;;;5095768;28;20266;-76
2021/01/02 13:25:14;;;;;;;;;;;5.80;71.40;;;;;;5096218;28;19924;-73
2021/01/02 13:27:40;;;;;;;;;;;5.80;71.90;;;;;;5096195;28;19924;-74
2021/01/02 13:30:07;;;;;;;;;;;5.80;71.90;;;;;;5096631;28;19924;-76
2021/01/02 13:32:34;;;;;;;;;;;5.70;72.40;;;;;;5095281;28;19924;-71
2021/01/02 13:35:00;;;;;;;;;;;6.00;71.00;;;;;;5094401;28;20407;-73
2021/01/02 13:37:26;;;;;;;;;;;6.20;70.90;;;;;;5092063;28;19932;-74
2021/01/02 13:39:53;;;;;;;;;;;5.90;71.70;;;;;;5092176;28;19928;-73
2021/01/02 13:42:23;;;;;;;;;;;5.70;73.10;;;;;;5093119;28;19924;-73
2021/01/02 13:44:51;;;;;;;;;;;5.80;72.50;;;;;;5079304;28;19924;-72
2021/01/02 13:47:19;;;;;;;;;;;5.70;73.10;;;;;;5092991;28;19928;-72
2021/01/02 13:49:46;;;;;;;;;;;5.90;73.60;;;;;;5092928;28;20346;-74
2021/01/02 13:52:13;;;;;;;;;;;6.30;71.40;;;;;;5092846;28;19924;-69
2021/01/02 13:54:40;;;;;;;;;;;6.50;70.50;;;;;;5100535;28;19928;-69
2021/01/02 13:57:07;;;;;;;;;;;6.50;70.60;;;;;;5114537;28;19924;-71
2021/01/02 13:59:33;;;;;;;;;;;6.60;70.00;;;;;;5114309;28;19930;-72
2021/01/02 14:02:00;;;;;;;;;;;6.40;69.60;;;;;;5114334;28;20241;-69
2021/01/02 14:04:26;;;;;;;;;;;6.50;70.00;;;;;;5099853;28;19950;-70
2021/01/02 14:06:56;;;;;;;;;;;6.70;70.40;;;;;;5093021;28;19931;-69
2021/01/02 14:09:24;;;;;;;;;;;6.90;70.00;;;;;;5092997;28;19931;-70
2021/01/02 14:11:53;;;;;;;;;;;7.00;69.10;;;;;;5092798;28;19931;-70
2021/01/02 14:14:20;;;;;;;;;;;6.80;69.40;;;;;;5092847;28;19924;-70
2021/01/02 14:16:47;;;;;;;;;;;6.60;70.10;;;;;;5099817;28;20335;-69
2021/01/02 14:19:16;;;;;;;;;;;6.70;71.30;;;;;;5102977;28;20114;-69
2021/01/02 14:21:43;;;;;;;;;;;6.80;69.70;;;;;;5099263;28;19973;-70
2021/01/02 14:24:10;;;;;;;;;;;6.70;70.20;;;;;;5101414;28;20472;-70
2021/01/02 14:26:36;;;;;;;;;;;6.60;70.60;;;;;;5102637;28;20316;-70
2021/01/02 14:29:03;;;;;;;;;;;6.50;71.20;;;;;;5100715;28;19993;-71
2021/01/02 14:31:33;;;;;;;;;;;6.60;71.40;;;;;;5101650;28;19932;-71
2021/01/02 14:34:00;;;;;;;;;;;6.50;71.70;;;;;;5103986;28;20293;-70
2021/01/02 14:36:27;;;;;;;;;;;6.30;71.50;;;;;;5103292;28;19927;-71
2021/01/02 14:38:53;;;;;;;;;;;6.30;72.20;;;;;;5107559;28;20387;-69
2021/01/02 14:41:23;;;;;;;;;;;6.30;71.50;;;;;;5112736;28;19963;-69
2021/01/02 14:43:50;;;;;;;;;;;6.30;72.30;;;;;;5093159;28;19932;-70